Time;durP1;ratioP1;P1;durP2;ratioP2;P2;SDS_P1;SDS_P2;PMS_P1;PMS_P2;Temp;Humidity;BMP_temperature;BMP_pressure;BME280_temperature;BME280_humidity;BME280_pressure;Samples;Min_cycle;Max_cycle;Signal;HPM_P1;HPM_P2
2020/12/04 00:00:40;;;;;;;9.43;3.40;;;27.50;45.10;;;;;;4898125;29;20033;-82
2020/12/04 00:03:07;;;;;;;8.15;3.17;;;27.40;45.00;;;;;;4899368;29;20060;-80
2020/12/04 00:05:35;;;;;;;4.93;3.33;;;27.40;44.50;;;;;;4898675;29;20500;-79
2020/12/04 00:08:02;;;;;;;8.55;3.53;;;27.50;44.40;;;;;;4898787;29;20089;-81
2020/12/04 00:10:30;;;;;;;7.70;3.50;;;27.40;44.50;;;;;;4896026;29;20491;-76
2020/12/04 00:12:57;;;;;;;8.13;3.60;;;27.40;47.10;;;;;;4907983;29;20117;-81
2020/12/04 00:15:25;;;;;;;7.05;3.20;;;27.40;44.70;;;;;;4902349;29;20088;-82
2020/12/04 00:17:52;;;;;;;7.45;3.55;;;27.60;44.90;;;;;;4898762;29;20028;-80
2020/12/04 00:20:19;;;;;;;5.80;3.40;;;27.70;45.30;;;;;;4898906;29;20060;-76
2020/12/04 00:22:47;;;;;;;8.35;3.30;;;27.80;44.80;;;;;;4899245;29;20089;-80
2020/12/04 00:25:14;;;;;;;11.38;4.13;;;28.00;45.60;;;;;;4898767;29;20029;-81
2020/12/04 00:27:41;;;;;;;8.05;3.15;;;28.30;44.40;;;;;;4897725;29;20025;-79
2020/12/04 00:30:09;;;;;;;5.75;2.95;;;28.50;43.10;;;;;;4891146;29;20543;-80
2020/12/04 00:32:36;;;;;;;6.38;3.42;;;28.90;42.50;;;;;;4883802;29;20676;-76
2020/12/04 00:35:04;;;;;;;8.63;3.10;;;28.90;42.90;;;;;;4878665;29;20036;-72
2020/12/04 00:37:31;;;;;;;8.38;3.70;;;29.30;43.40;;;;;;4879324;29;20129;-73
2020/12/04 00:39:58;;;;;;;10.20;3.70;;;29.40;42.60;;;;;;4889396;29;20059;-74
2020/12/04 00:42:26;;;;;;;8.80;4.75;;;29.70;41.90;;;;;;4897495;29;20088;-74
2020/12/04 00:44:53;;;;;;;8.50;3.10;;;30.00;41.40;;;;;;4898238;29;20072;-74
2020/12/04 00:47:20;;;;;;;8.82;3.80;;;30.40;40.10;;;;;;4897536;29;20024;-79
2020/12/04 00:49:48;;;;;;;7.00;3.50;;;30.30;41.30;;;;;;4897849;29;20067;-73
2020/12/04 00:52:15;;;;;;;7.78;3.55;;;30.70;40.60;;;;;;4898254;29;20040;-74
2020/12/04 00:54:42;;;;;;;11.25;5.50;;;30.70;39.90;;;;;;4916919;29;20494;-74
2020/12/04 00:57:10;;;;;;;8.52;4.05;;;30.70;41.10;;;;;;4916906;29;20030;-75
2020/12/04 00:59:38;;;;;;;6.95;3.28;;;30.90;40.20;;;;;;4915751;29;20028;-74
2020/12/04 01:02:06;;;;;;;7.55;4.10;;;31.00;39.70;;;;;;4897817;29;20036;-77
2020/12/04 01:04:33;;;;;;;11.50;3.70;;;31.20;40.30;;;;;;4900959;29;20025;-76
2020/12/04 01:07:06;;;;;;;8.98;4.50;;;31.70;38.60;;;;;;4919195;29;20024;-77
2020/12/04 01:09:34;;;;;;;9.63;3.63;;;31.50;39.20;;;;;;4912924;29;20439;-75
2020/12/04 01:12:03;;;;;;;8.55;3.10;;;31.50;39.30;;;;;;4897061;29;20043;-74
2020/12/04 01:14:31;;;;;;;8.48;3.20;;;31.80;38.80;;;;;;4915713;29;20028;-73
2020/12/04 01:16:59;;;;;;;9.18;3.40;;;31.60;38.30;;;;;;4916245;29;20055;-74
2020/12/04 01:19:27;;;;;;;10.65;3.78;;;31.60;38.20;;;;;;4915558;29;20054;-75
2020/12/04 01:21:54;;;;;;;7.07;2.67;;;31.90;37.30;;;;;;4917776;29;20024;-75
2020/12/04 01:24:21;;;;;;;6.25;3.08;;;31.90;36.70;;;;;;4911031;29;20083;-75
2020/12/04 01:26:49;;;;;;;7.97;3.33;;;31.80;37.50;;;;;;4915758;29;20032;-77
2020/12/04 01:29:16;;;;;;;7.72;2.85;;;31.70;38.00;;;;;;4915933;29;20103;-75
2020/12/04 01:31:47;;;;;;;13.68;4.22;;;31.80;42.70;;;;;;4912371;29;20411;-74
2020/12/04 01:34:15;;;;;;;11.93;4.35;;;32.00;49.80;;;;;;4895812;29;20032;-74
2020/12/04 01:36:43;;;;;;;13.85;4.57;;;31.40;51.30;;;;;;4897279;29;20036;-75
2020/12/04 01:39:10;;;;;;;13.30;4.72;;;30.70;53.30;;;;;;4897755;29;20127;-74
2020/12/04 01:41:40;;;;;;;10.43;4.47;;;30.00;53.70;;;;;;4903999;29;20040;-74
2020/12/04 01:44:08;;;;;;;20.73;6.28;;;30.00;54.40;;;;;;4881602;29;20032;-76
2020/12/04 01:46:36;;;;;;;13.35;4.85;;;29.60;56.40;;;;;;4908685;29;20051;-75
2020/12/04 01:49:04;;;;;;;11.18;4.28;;;29.20;57.90;;;;;;4917036;29;20515;-75
2020/12/04 01:51:33;;;;;;;17.40;4.93;;;28.80;58.60;;;;;;4916662;29;20020;-76
2020/12/04 01:54:00;;;;;;;16.58;4.93;;;28.50;59.30;;;;;;4916156;29;20549;-75
2020/12/04 01:56:38;;;;;;;12.52;4.78;;;28.30;60.00;;;;;;4900155;29;20118;-75
2020/12/04 01:59:06;;;;;;;16.70;4.93;;;28.10;61.50;;;;;;4916076;29;20036;-75
2020/12/04 02:01:40;;;;;;;12.93;4.85;;;28.10;60.90;;;;;;4924452;29;20032;-74
2020/12/04 02:04:09;;;;;;;14.23;4.70;;;27.90;60.90;;;;;;4923614;29;20028;-74
2020/12/04 02:07:12;;;;;;;12.50;4.30;;;27.80;61.00;;;;;;4915932;29;20035;-74
2020/12/04 02:09:47;;;;;;;16.45;5.03;;;27.80;62.30;;;;;;4916332;29;20031;-76
2020/12/04 02:12:17;;;;;;;14.43;5.18;;;27.60;62.00;;;;;;4916223;29;20046;-75
2020/12/04 02:14:47;;;;;;;15.82;5.28;;;27.30;63.20;;;;;;4916646;29;20053;-79
2020/12/04 02:17:15;;;;;;;14.57;5.38;;;27.40;63.00;;;;;;4916468;29;20427;-75
2020/12/04 02:19:45;;;;;;;17.60;5.07;;;27.30;63.10;;;;;;4915959;29;20072;-76
2020/12/04 02:22:13;;;;;;;14.98;4.20;;;27.30;63.40;;;;;;4915644;29;20068;-76
2020/12/04 02:24:41;;;;;;;13.77;4.78;;;27.30;63.30;;;;;;4915666;29;20534;-75
2020/12/04 02:27:14;;;;;;;18.60;5.50;;;27.00;63.40;;;;;;4915038;29;20107;-75
2020/12/04 02:29:42;;;;;;;17.70;5.63;;;26.80;64.10;;;;;;4915821;29;20032;-76
2020/12/04 02:32:16;;;;;;;13.63;4.95;;;26.70;63.90;;;;;;4914576;29;20024;-75
2020/12/04 02:34:43;;;;;;;18.13;5.80;;;26.80;64.50;;;;;;4900645;29;20399;-76
2020/12/04 02:37:11;;;;;;;10.40;5.32;;;26.80;63.80;;;;;;4915379;29;20035;-76
2020/12/04 02:39:38;;;;;;;10.00;5.30;;;26.90;62.90;;;;;;4918945;29;20026;-75
2020/12/04 02:42:06;;;;;;;15.57;5.00;;;26.80;61.80;;;;;;4919403;29;20036;-76
2020/12/04 02:44:34;;;;;;;14.02;5.60;;;26.80;62.50;;;;;;4919184;29;20379;-78
2020/12/04 02:47:01;;;;;;;15.68;5.75;;;26.70;62.20;;;;;;4919566;29;20055;-77
2020/12/04 02:49:29;;;;;;;12.40;5.63;;;26.60;63.80;;;;;;4918921;29;20103;-75
2020/12/04 02:51:57;;;;;;;13.40;5.70;;;26.80;61.80;;;;;;4919307;29;20075;-78
2020/12/04 02:54:24;;;;;;;13.77;5.53;;;26.90;62.40;;;;;;4918885;29;20458;-76
2020/12/04 02:56:52;;;;;;;12.48;5.75;;;26.90;62.10;;;;;;4918354;29;20016;-78
2020/12/04 02:59:19;;;;;;;20.20;5.97;;;26.90;62.00;;;;;;4919218;29;20024;-75
2020/12/04 03:01:46;;;;;;;13.88;6.10;;;26.90;62.30;;;;;;4919079;29;20060;-74
2020/12/04 03:04:14;;;;;;;13.85;5.90;;;27.00;61.50;;;;;;4921523;29;20028;-75
2020/12/04 03:06:41;;;;;;;14.48;5.97;;;27.10;62.50;;;;;;4923542;29;20032;-76
2020/12/04 03:09:09;;;;;;;12.45;5.43;;;27.10;61.10;;;;;;4904149;29;20057;-75
2020/12/04 03:11:36;;;;;;;;;;;27.00;60.90;;;;;;4919802;29;20078;-77
2020/12/04 03:14:03;;;;;;;;;;;27.00;62.10;;;;;;4919889;29;19918;-76
2020/12/04 03:16:30;;;;;;;;;;;26.80;60.30;;;;;;4918758;29;19989;-76
2020/12/04 03:18:58;;;;;;;;;;;26.80;60.10;;;;;;4919061;29;20255;-76
2020/12/04 03:21:24;;;;;;;;;;;26.70;60.40;;;;;;4918320;29;20068;-76
2020/12/04 03:23:51;;;;;;;;;;;26.70;61.20;;;;;;4902461;29;19907;-76
2020/12/04 03:26:18;;;;;;;;;;;26.90;60.00;;;;;;4918357;29;19997;-76
2020/12/04 03:28:44;;;;;;;;;;;26.70;58.60;;;;;;4919066;29;19933;-78
2020/12/04 03:31:11;;;;;;;;;;;26.60;61.50;;;;;;4918713;29;20270;-74
2020/12/04 03:33:39;;;;;;;;;;;26.60;62.90;;;;;;4909065;29;19927;-75
2020/12/04 03:36:06;;;;;;;;;;;26.80;63.20;;;;;;4906091;29;19943;-77
2020/12/04 03:38:32;;;;;;;;;;;26.90;61.60;;;;;;4918888;29;20293;-81
2020/12/04 03:41:00;;;;;;;;;;;26.70;61.90;;;;;;4918747;29;19913;-76
2020/12/04 03:43:27;;;;;;;;;;;26.70;63.70;;;;;;4901572;29;19915;-75
2020/12/04 03:45:54;;;;;;;;;;;26.60;62.40;;;;;;4918674;29;19953;-78
2020/12/04 03:48:20;;;;;;;;;;;26.40;63.40;;;;;;4899853;29;19918;-75
2020/12/04 03:50:47;;;;;;;;;;;26.40;63.70;;;;;;4918309;29;19914;-73
2020/12/04 03:53:14;;;;;;;;;;;26.50;63.60;;;;;;4901551;29;19958;-78
2020/12/04 03:55:41;;;;;;;;;;;26.40;61.80;;;;;;4917951;29;19911;-77
2020/12/04 03:58:09;;;;;;;;;;;26.40;62.90;;;;;;4917790;29;20305;-77
2020/12/04 04:00:39;;;;;;;;;;;26.50;61.60;;;;;;4917243;29;19915;-75
2020/12/04 04:03:05;;;;;;;;;;;26.60;60.40;;;;;;4918167;29;19915;-74
2020/12/04 04:05:32;;;;;;;;;;;26.60;58.50;;;;;;4918299;29;19911;-75
2020/12/04 04:07:59;;;;;;;;;;;26.70;58.30;;;;;;4918398;29;19907;-75
2020/12/04 04:10:25;;;;;;;;;;;26.60;55.60;;;;;;4919100;29;19970;-76
2020/12/04 04:12:52;;;;;;;;;;;26.60;55.40;;;;;;4926698;29;19921;-75
2020/12/04 04:15:20;;;;;;;;;;;26.70;52.60;;;;;;4929735;29;19907;-75
2020/12/04 04:17:47;;;;;;;;;;;26.70;53.00;;;;;;4918192;29;19954;-78
2020/12/04 04:20:14;;;;;;;;;;;26.90;50.70;;;;;;4918064;29;19907;-75
2020/12/04 04:22:46;;;;;;;;;;;26.90;50.80;;;;;;4918958;29;20010;-82
2020/12/04 04:25:15;;;;;;;;;;;27.10;50.80;;;;;;4928069;29;19942;-77
2020/12/04 04:27:42;;;;;;;;;;;27.00;49.20;;;;;;4927608;29;19907;-74
2020/12/04 04:30:09;;;;;;;;;;;26.70;51.50;;;;;;4905385;29;19915;-74
2020/12/04 04:32:37;;;;;;;;;;;26.70;53.00;;;;;;4921059;29;19926;-76
2020/12/04 04:35:04;;;;;;;;;;;26.80;53.90;;;;;;4896580;29;19918;-75
2020/12/04 04:37:31;;;;;;;;;;;26.80;55.00;;;;;;4916699;29;19911;-77
2020/12/04 04:39:58;;;;;;;;;;;26.60;55.30;;;;;;4933232;29;20381;-78
2020/12/04 04:42:25;;;;;;;;;;;26.40;56.10;;;;;;4917288;29;21446;-75
2020/12/04 04:44:52;;;;;;;;;;;26.50;57.20;;;;;;4917998;29;20013;-75
2020/12/04 04:47:19;;;;;;;;;;;26.40;56.30;;;;;;4917007;29;19915;-75
2020/12/04 04:49:48;;;;;;;;;;;26.50;55.60;;;;;;4906817;29;19929;-78
2020/12/04 04:52:16;;;;;;;;;;;26.50;54.80;;;;;;4916511;29;19919;-80
2020/12/04 04:54:48;;;;;;;;;;;26.50;55.10;;;;;;4901381;29;19950;-77
2020/12/04 04:57:18;;;;;;;;;;;26.40;57.00;;;;;;4917367;29;20393;-77
2020/12/04 04:59:45;;;;;;;;;;;26.40;56.10;;;;;;4900700;29;20304;-73
2020/12/04 05:02:12;;;;;;;;;;;26.20;56.00;;;;;;4931122;29;19989;-74
2020/12/04 05:05:05;;;;;;;;;;;26.10;54.60;;;;;;4921740;29;20039;-78
2020/12/04 05:07:33;;;;;;;;;;;26.00;57.30;;;;;;4914543;29;19911;-75
2020/12/04 05:10:31;;;;;;;;;;;26.00;59.90;;;;;;4918183;29;19907;-76
2020/12/04 05:13:02;;;;;;;;;;;25.80;61.10;;;;;;4905869;29;19953;-76
2020/12/04 05:15:31;;;;;;;;;;;25.80;61.30;;;;;;4916628;29;19911;-75
2020/12/04 05:18:09;;;;;;;;;;;25.80;62.50;;;;;;4915864;29;19907;-73
2020/12/04 05:20:40;;;;;;;;;;;25.80;64.00;;;;;;4885938;29;20373;-74
2020/12/04 05:23:07;;;;;;;;;;;25.80;63.20;;;;;;4917167;29;20281;-75
2020/12/04 05:25:55;;;;;;;;;;;25.80;62.80;;;;;;4916495;29;20383;-74
2020/12/04 05:28:26;;;;;;;;;;;25.70;63.30;;;;;;4916488;29;19913;-76
2020/12/04 05:31:06;;;;;;;;;;;25.70;62.50;;;;;;4917332;29;19982;-80
2020/12/04 05:33:33;;;;;;;;;;;25.70;59.60;;;;;;4917635;29;19927;-74
2020/12/04 05:35:59;;;;;;;;;;;25.60;62.20;;;;;;4918818;29;19918;-76
2020/12/04 05:38:26;;;;;;;;;;;25.60;63.20;;;;;;4898754;29;20396;-76
2020/12/04 05:41:06;;;;;;;;;;;25.60;64.90;;;;;;4915507;29;20005;-74
2020/12/04 05:43:34;;;;;;;;;;;25.60;64.50;;;;;;4916157;29;19919;-74
2020/12/04 05:46:23;;;;;;;;;;;25.60;64.10;;;;;;4916221;29;19911;-75
2020/12/04 05:49:09;;;;;;;;;;;25.60;60.10;;;;;;4913711;29;20013;-76
2020/12/04 05:51:50;;;;;;;;;;;25.60;62.10;;;;;;4915099;29;19920;-73
2020/12/04 05:54:18;;;;;;;;;;;25.70;62.00;;;;;;4915071;29;20017;-75
2020/12/04 05:56:50;;;;;;;;;;;25.80;63.50;;;;;;4914378;29;19923;-77
2020/12/04 05:59:25;;;;;;;;;;;25.80;62.00;;;;;;4912739;29;19911;-76
2020/12/04 06:01:52;;;;;;;;;;;25.80;60.60;;;;;;4913311;29;19915;-77
2020/12/04 06:04:19;;;;;;;;;;;25.80;61.90;;;;;;4912683;29;20329;-76
2020/12/04 06:06:46;;;;;;;;;;;25.80;62.70;;;;;;4912723;29;20006;-75
2020/12/04 06:09:13;;;;;;;;;;;25.60;61.00;;;;;;4915337;29;19915;-73
2020/12/04 06:11:41;;;;;;;;;;;25.50;61.90;;;;;;4900817;29;19961;-76
2020/12/04 06:14:22;;;;;;;;;;;25.60;61.40;;;;;;4911939;29;19917;-74
2020/12/04 06:17:01;;;;;;;;;;;25.40;60.40;;;;;;4923679;29;19911;-75
2020/12/04 06:19:30;;;;;;;;;;;25.30;60.60;;;;;;4917077;29;19911;-74
2020/12/04 06:22:07;;;;;;;;;;;25.40;60.70;;;;;;4921050;29;20097;-75
2020/12/04 06:24:54;;;;;;;;;;;25.30;62.40;;;;;;4919519;29;19911;-74
2020/12/04 06:27:39;;;;;;;;;;;25.30;61.40;;;;;;4912442;29;19907;-78
2020/12/04 06:30:08;;;;;;;;;;;25.30;58.60;;;;;;4929325;29;19915;-77
2020/12/04 06:32:35;;;;;;;;;;;25.30;60.60;;;;;;4917971;29;20338;-78
2020/12/04 06:35:02;;;;;;;;;;;25.20;56.80;;;;;;4917707;29;19966;-76
2020/12/04 06:37:49;;;;;;;;;;;25.10;59.40;;;;;;4914872;29;19918;-76
2020/12/04 06:40:30;;;;;;;;;;;25.10;60.50;;;;;;4914239;29;20576;-75
2020/12/04 06:43:00;;;;;;;;;;;25.10;61.10;;;;;;4915611;29;19915;-76
2020/12/04 06:45:59;;;;;;;;;;;25.10;58.70;;;;;;4914404;29;19963;-76
2020/12/04 06:48:26;;;;;;;;;;;25.20;57.40;;;;;;4890656;29;19986;-78
2020/12/04 06:50:52;;;;;;;;;;;25.20;56.10;;;;;;4916838;29;19911;-83
2020/12/04 06:53:21;;;;;;;;;;;25.20;55.10;;;;;;4917509;29;19919;-77
2020/12/04 06:55:48;;;;;;;;;;;25.10;55.30;;;;;;4917233;29;19907;-80
2020/12/04 06:58:18;;;;;;;;;;;25.20;53.00;;;;;;4917345;29;19915;-77
2020/12/04 07:00:45;;;;;;;;;;;25.20;52.10;;;;;;4917579;29;20278;-77
2020/12/04 07:03:16;;;;;;;;;;;25.20;52.30;;;;;;4917204;29;20353;-77
2020/12/04 07:05:43;;;;;;;;;;;25.10;54.70;;;;;;4916706;29;19907;-79
2020/12/04 07:08:10;;;;;;;;;;;25.00;55.50;;;;;;4915381;29;20338;-77
2020/12/04 07:10:37;;;;;;;;;;;24.90;55.70;;;;;;4897436;29;19918;-79
2020/12/04 07:13:05;;;;;;;;;;;24.90;53.00;;;;;;4915305;29;19915;-76
2020/12/04 07:15:32;;;;;;;;;;;24.90;51.30;;;;;;4915773;29;20002;-77
2020/12/04 07:17:59;;;;;;;;;;;24.90;52.30;;;;;;4916598;29;20002;-78
2020/12/04 07:20:36;;;;;;;;;;;25.00;52.70;;;;;;4915334;29;20313;-76
2020/12/04 07:23:07;;;;;;;;;;;25.00;52.40;;;;;;4916098;29;19919;-75
2020/12/04 07:25:34;;;;;;;;;;;25.00;49.90;;;;;;4917136;29;20307;-76
2020/12/04 07:28:02;;;;;;;;;;;25.00;50.00;;;;;;4899446;29;19929;-76
2020/12/04 07:30:29;;;;;;;;;;;25.00;49.00;;;;;;4915729;29;19982;-77
2020/12/04 07:32:56;;;;;;;;;;;25.00;48.20;;;;;;4916836;29;20009;-74
2020/12/04 07:35:23;;;;;;;;;;;25.00;48.70;;;;;;4895655;29;19907;-75
2020/12/04 07:37:50;;;;;;;;;;;25.00;51.30;;;;;;4924519;29;19914;-75
2020/12/04 07:40:30;;;;;;;;;;;24.90;49.30;;;;;;4936366;29;20518;-75
2020/12/04 07:42:57;;;;;;;;;;;24.90;49.20;;;;;;4935800;29;19958;-75
2020/12/04 07:45:24;;;;;;;;;;;24.80;50.50;;;;;;4921628;29;20551;-82
2020/12/04 07:47:50;;;;;;;;;;;24.80;49.90;;;;;;4938015;29;19922;-75
2020/12/04 07:50:17;;;;;;;;;;;24.70;50.90;;;;;;4922130;29;19911;-79
2020/12/04 07:52:50;;;;;;;;;;;24.70;50.70;;;;;;4916097;29;20238;-75
2020/12/04 07:55:19;;;;;;;;;;;24.70;52.00;;;;;;4916460;29;19917;-75
2020/12/04 07:57:55;;;;;;;;;;;24.70;50.20;;;;;;4916303;29;19918;-75
2020/12/04 08:00:21;;;;;;;;;;;24.70;52.10;;;;;;4915476;29;19907;-75
2020/12/04 08:02:48;;;;;;;;;;;24.60;52.20;;;;;;4897848;29;20014;-75
2020/12/04 08:05:21;;;;;;;;;;;24.60;53.20;;;;;;4917467;29;20381;-77
2020/12/04 08:07:52;;;;;;;;;;;24.60;51.80;;;;;;4918077;29;19907;-77
2020/12/04 08:10:19;;;;;;;;;;;24.50;51.20;;;;;;4917728;29;19998;-78
2020/12/04 08:12:48;;;;;;;;;;;24.50;52.80;;;;;;4917618;29;19919;-75
2020/12/04 08:15:16;;;;;;;;;;;24.50;51.90;;;;;;4917764;29;19918;-74
2020/12/04 08:17:43;;;;;;;;;;;24.40;53.20;;;;;;4917864;29;19968;-73
2020/12/04 08:20:17;;;;;;;;;;;24.40;54.50;;;;;;4917416;29;19914;-74
2020/12/04 08:22:48;;;;;;;;;;;24.30;53.90;;;;;;4917574;29;19907;-73
2020/12/04 08:25:15;;;;;;;;;;;24.30;54.90;;;;;;4917887;29;20278;-76
2020/12/04 08:27:43;;;;;;;;;;;24.30;54.10;;;;;;4918340;29;19918;-74
2020/12/04 08:30:16;;;;;;;;;;;24.20;55.80;;;;;;4904284;29;19998;-76
2020/12/04 08:32:45;;;;;;;;;;;24.10;54.50;;;;;;4917949;29;19919;-76
2020/12/04 08:35:14;;;;;;;;;;;24.10;55.30;;;;;;4918579;29;20245;-74
2020/12/04 08:37:41;;;;;;;;;;;24.00;55.20;;;;;;4902251;29;19907;-74
2020/12/04 08:40:24;;;;;;;;;;;24.00;56.30;;;;;;4917938;29;19915;-74
2020/12/04 08:42:51;;;;;;;;;;;24.00;56.40;;;;;;4917762;29;19914;-83
2020/12/04 08:45:25;;;;;;;;;;;24.00;55.80;;;;;;4917826;29;19918;-74
2020/12/04 08:47:52;;;;;;;;;;;23.90;56.00;;;;;;4917229;29;19907;-78
2020/12/04 08:50:19;;;;;;;;;;;23.80;56.20;;;;;;4915398;29;19970;-75
2020/12/04 08:52:48;;;;;;;;;;;23.80;55.20;;;;;;4916588;29;20318;-73
2020/12/04 08:55:21;;;;;;;;;;;23.80;54.10;;;;;;4916094;29;19962;-74
2020/12/04 08:57:49;;;;;;;;;;;23.80;54.00;;;;;;4913576;29;19907;-75
2020/12/04 09:00:17;;;;;;;;;;;23.70;53.10;;;;;;4912524;29;20277;-81
2020/12/04 09:02:47;;;;;;;;;;;23.70;52.90;;;;;;4917080;29;19941;-73
2020/12/04 09:05:15;;;;;;;;;;;23.70;53.70;;;;;;4921370;29;19911;-73
2020/12/04 09:07:43;;;;;;;;;;;23.60;54.90;;;;;;4920915;29;20329;-75
2020/12/04 09:10:12;;;;;;;;;;;23.60;56.00;;;;;;4908004;29;19990;-77
2020/12/04 09:12:40;;;;;;;;;;;23.60;56.50;;;;;;4919421;29;19921;-77
2020/12/04 09:15:11;;;;;;;;;;;23.60;57.00;;;;;;4920158;29;20001;-75
2020/12/04 09:17:38;;;;;;;;;;;23.50;57.40;;;;;;4909208;29;19907;-77
2020/12/04 09:20:06;;;;;;;;;;;23.60;57.10;;;;;;4919195;29;19913;-73
2020/12/04 09:22:33;;;;;;;;;;;23.50;56.90;;;;;;4908729;29;20345;-77
2020/12/04 09:25:04;;;;;;;;;;;23.40;58.30;;;;;;4920093;29;19949;-80
2020/12/04 09:27:31;;;;;;;;;;;23.40;58.80;;;;;;4909428;29;19938;-74
2020/12/04 09:29:57;;;;;;;;;;;23.30;59.20;;;;;;4918233;29;19950;-73
2020/12/04 09:32:24;;;;;;;;;;;23.30;59.70;;;;;;4917550;29;19967;-74
2020/12/04 09:34:51;;;;;;;;;;;23.20;60.30;;;;;;4915616;29;20392;-73
2020/12/04 09:37:28;;;;;;;;;;;23.20;60.50;;;;;;4919898;29;20411;-77
2020/12/04 09:39:56;;;;;;;;;;;23.10;60.80;;;;;;4908585;29;19930;-78
2020/12/04 09:42:24;;;;;;;;;;;23.10;61.60;;;;;;4915332;29;19922;-74
2020/12/04 09:44:51;;;;;;;;;;;23.10;62.00;;;;;;4916132;29;19919;-73
2020/12/04 09:47:23;;;;;;;;;;;23.00;62.00;;;;;;4916445;29;19987;-75
2020/12/04 09:49:53;;;;;;;;;;;23.00;63.00;;;;;;4916215;29;19911;-74
2020/12/04 09:52:20;;;;;;;;;;;23.00;61.70;;;;;;4916564;29;20013;-75
2020/12/04 09:54:47;;;;;;;;;;;23.00;60.60;;;;;;4918514;29;20333;-75
2020/12/04 09:57:15;;;;;;;;;;;22.90;60.00;;;;;;4904892;29;20002;-78
2020/12/04 09:59:41;;;;;;;;;;;23.00;59.30;;;;;;4899708;29;19963;-75
2020/12/04 10:02:09;;;;;;;;;;;23.10;59.40;;;;;;4895022;29;20255;-73
2020/12/04 10:04:38;;;;;;;;;;;23.10;59.10;;;;;;4902033;29;20022;-75
2020/12/04 10:07:05;;;;;;;;;;;23.10;59.90;;;;;;4897480;29;19930;-75
2020/12/04 10:09:32;;;;;;;;;;;23.10;60.50;;;;;;4880668;29;19914;-75
2020/12/04 10:11:59;;;;;;;;;;;23.10;60.70;;;;;;4897354;29;19915;-76
2020/12/04 10:14:26;;;;;;;;;;;23.00;60.60;;;;;;4897257;29;19920;-75
2020/12/04 10:16:53;;;;;;;;;;;23.00;60.90;;;;;;4905641;29;20318;-77
2020/12/04 10:19:20;;;;;;;;;;;23.00;61.60;;;;;;4906931;29;19907;-75
2020/12/04 10:21:48;;;;;;;;;;;23.00;62.20;;;;;;4915336;29;19914;-74
2020/12/04 10:24:15;;;;;;;;;;;22.90;63.20;;;;;;4911461;29;20080;-75
2020/12/04 10:26:46;;;;;;;;;;;22.80;65.20;;;;;;4910172;29;19922;-76
2020/12/04 10:29:14;;;;;;;;;;;22.90;66.80;;;;;;4915282;29;19907;-77
2020/12/04 10:31:40;;;;;;;;;;;22.80;68.10;;;;;;4912650;29;20354;-74
2020/12/04 10:34:07;;;;;;;;;;;22.70;68.90;;;;;;4916139;29;19959;-78
2020/12/04 10:36:43;;;;;;;;;;;22.70;69.30;;;;;;4911943;29;19907;-81
2020/12/04 10:39:16;;;;;;;;;;;22.70;70.00;;;;;;4913826;29;19955;-78
2020/12/04 10:41:43;;;;;;;;;;;22.60;73.10;;;;;;4914736;29;20362;-84
2020/12/04 10:44:11;;;;;;;;;;;22.60;75.80;;;;;;4914727;29;19914;-77
2020/12/04 10:46:38;;;;;;;;;;;22.50;76.90;;;;;;4907253;29;19911;-85
2020/12/04 10:49:07;;;;;;;;;;;22.40;78.50;;;;;;4904778;29;19911;-77
2020/12/04 10:51:34;;;;;;;;;;;22.40;79.70;;;;;;4905710;29;19915;-78
2020/12/04 10:54:01;;;;;;;;;;;22.40;81.00;;;;;;4905960;29;19923;-75
2020/12/04 10:56:30;;;;;;;;;;;22.30;81.90;;;;;;4913024;29;20003;-78
2020/12/04 10:58:57;;;;;;;;;;;22.30;83.90;;;;;;4907760;29;19966;-78
2020/12/04 11:01:32;;;;;;;;;;;22.30;84.70;;;;;;4917279;29;19969;-78
2020/12/04 11:06:47;;;;;;;;;;;22.20;86.30;;;;;;4916290;29;20086;-77
2020/12/04 11:09:13;;;;;;;;;;;22.10;87.30;;;;;;4907227;29;19918;-78
2020/12/04 11:11:40;;;;;;;;;;;22.00;88.40;;;;;;4915164;29;20297;-79
2020/12/04 11:14:09;;;;;;;;;;;22.00;88.80;;;;;;4916359;29;19915;-79
2020/12/04 11:16:39;;;;;;;;;;;22.00;89.40;;;;;;4916709;29;19930;-79
2020/12/04 11:19:06;;;;;;;;;;;21.90;89.40;;;;;;4914836;29;19910;-77
2020/12/04 11:21:32;;;;;;;;;;;21.90;89.40;;;;;;4918214;29;20283;-79
2020/12/04 11:23:59;;;;;;;;;;;21.90;90.10;;;;;;4917634;29;19970;-79
2020/12/04 11:26:26;;;;;;;;;;;21.80;90.30;;;;;;4915262;29;19919;-78
2020/12/04 11:28:52;;;;;;;;;;;21.80;90.30;;;;;;4915791;29;20408;-78
2020/12/04 11:31:19;;;;;;;;;;;21.80;89.20;;;;;;4914797;29;19922;-79
2020/12/04 11:33:46;;;;;;;;;;;21.70;89.00;;;;;;4915746;29;19970;-80
2020/12/04 11:36:12;;;;;;;;;;;21.70;88.80;;;;;;4916241;29;20247;-84
2020/12/04 11:38:39;;;;;;;;;;;21.70;89.30;;;;;;4916418;29;20011;-78
2020/12/04 11:41:07;;;;;;;;;;;21.60;89.60;;;;;;4916620;29;19918;-79
2020/12/04 11:43:33;;;;;;;;;;;21.60;89.50;;;;;;4903813;29;19915;-79
2020/12/04 11:46:00;;;;;;;;;;;21.60;89.60;;;;;;4916896;29;20034;-78
2020/12/04 11:48:27;;;;;;;;;;;21.60;89.70;;;;;;4915951;29;19910;-79
2020/12/04 11:50:54;;;;;;;;;;;21.50;89.70;;;;;;4912699;29;19911;-81
2020/12/04 11:53:20;;;;;;;;;;;21.50;89.80;;;;;;4926727;29;20365;-80
2020/12/04 11:55:47;;;;;;;;;;;21.40;89.80;;;;;;4923271;29;20572;-80
2020/12/04 11:58:14;;;;;;;;;;;21.50;89.80;;;;;;4915474;29;19949;-77
2020/12/04 12:00:40;;;;;;;;;;;21.40;89.60;;;;;;4916212;29;20474;-79
2020/12/04 12:03:07;;;;;;;;;;;21.40;89.30;;;;;;4916009;29;20362;-78
2020/12/04 12:05:36;;;;;;;;;;;21.40;88.90;;;;;;4915232;29;19971;-77
2020/12/04 12:08:04;;;;;;;;;;;21.30;88.30;;;;;;4915310;29;19939;-75
2020/12/04 12:10:31;;;;;;;;;;;21.30;88.20;;;;;;4915213;29;19915;-77
2020/12/04 12:12:57;;;;;;;;;;;21.30;87.70;;;;;;4915911;29;20369;-78
2020/12/04 12:15:24;;;;;;;;;;;21.30;87.50;;;;;;4915859;29;19911;-76
2020/12/04 12:17:51;;;;;;;;;;;21.30;87.20;;;;;;4915982;29;19950;-79
2020/12/04 12:20:17;;;;;;;;;;;21.30;86.60;;;;;;4915796;29;19911;-79
2020/12/04 12:22:44;;;;;;;;;;;21.20;86.70;;;;;;4916189;29;20362;-76
2020/12/04 12:25:11;;;;;;;;;;;21.20;86.80;;;;;;4914689;29;19915;-76
2020/12/04 12:27:38;;;;;;;;;;;21.20;86.70;;;;;;4898796;29;19922;-80
2020/12/04 12:30:04;;;;;;;;;;;21.20;86.60;;;;;;4916710;29;20425;-77
2020/12/04 12:32:31;;;;;;;;;;;21.20;86.40;;;;;;4916232;29;20005;-79
2020/12/04 12:35:13;;;;;;;;;;;21.10;86.60;;;;;;4917786;29;19910;-79
2020/12/04 12:37:42;;;;;;;;;;;21.10;86.70;;;;;;4915625;29;19918;-75
2020/12/04 12:40:10;;;;;;;;;;;21.10;86.50;;;;;;4918279;29;19915;-76
2020/12/04 12:42:38;;;;;;;;;;;21.10;86.60;;;;;;4926444;29;19957;-77
2020/12/04 12:45:06;;;;;;;;;;;21.20;86.00;;;;;;4930076;29;19974;-75
2020/12/04 12:47:34;;;;;;;;;;;21.10;86.10;;;;;;4919841;29;19915;-75
2020/12/04 12:50:01;;;;;;;;;;;21.10;86.30;;;;;;4915238;29;19907;-75
2020/12/04 12:52:27;;;;;;;;;;;21.00;86.40;;;;;;4915215;29;20297;-76
2020/12/04 12:54:54;;;;;;;;;;;21.00;86.40;;;;;;4917113;29;19915;-76
2020/12/04 12:57:20;;;;;;;;;;;21.10;86.40;;;;;;4923409;29;20389;-77
2020/12/04 12:59:47;;;;;;;;;;;21.10;86.30;;;;;;4910132;29;19910;-75
2020/12/04 13:02:14;;;;;;;;;;;21.10;86.10;;;;;;4921622;29;20100;-76
2020/12/04 13:04:40;;;;;;;;;;;21.10;86.30;;;;;;4923211;29;20421;-76
2020/12/04 13:07:07;;;;;;;;;;;21.10;86.00;;;;;;4918200;29;19990;-76
2020/12/04 13:09:35;;;;;;;;;;;21.10;86.20;;;;;;4915418;29;19907;-75
2020/12/04 13:12:02;;;;;;;;;;;21.10;86.40;;;;;;4916385;29;20362;-76
2020/12/04 13:14:32;;;;;;;;;;;21.00;86.40;;;;;;4923131;29;19985;-75
2020/12/04 13:16:59;;;;;;;;;;;21.00;86.50;;;;;;4921925;29;19911;-76
2020/12/04 13:19:27;;;;;;;;;;;20.90;86.50;;;;;;4919046;29;19982;-77
2020/12/04 13:22:11;;;;;;;;;;;20.90;86.80;;;;;;4912435;29;20535;-76
2020/12/04 13:24:38;;;;;;;;;;;20.90;86.90;;;;;;4912320;29;19913;-74
2020/12/04 13:27:05;;;;;;;;;;;20.90;87.10;;;;;;4919684;29;19911;-74
2020/12/04 13:29:32;;;;;;;;;;;20.90;87.20;;;;;;4907799;29;19911;-75
2020/12/04 13:31:59;;;;;;;;;;;20.90;87.30;;;;;;4916865;29;20013;-76
2020/12/04 13:34:45;;;;;;;;;;;21.00;87.10;;;;;;4911995;29;19918;-76
2020/12/04 13:37:12;;;;;;;;;;;21.00;86.60;;;;;;4920839;29;19915;-75
2020/12/04 13:39:39;;;;;;;;;;;21.00;86.70;;;;;;4914427;29;19917;-75
2020/12/04 13:42:05;;;;;;;;;;;21.00;86.50;;;;;;4916774;29;19915;-75
2020/12/04 13:44:38;;;;;;;;;;;21.00;86.90;;;;;;4898844;29;19912;-76
2020/12/04 13:47:20;;;;;;;;;;;20.90;87.00;;;;;;4912608;29;19962;-75
2020/12/04 13:49:47;;;;;;;;;;;21.00;87.10;;;;;;4914458;29;19907;-75
2020/12/04 13:52:13;;;;;;;;;;;21.00;86.90;;;;;;4914366;29;19915;-76
2020/12/04 13:54:40;;;;;;;;;;;20.90;87.10;;;;;;4915834;29;19918;-75
2020/12/04 13:57:08;;;;;;;;;;;20.90;87.30;;;;;;4926638;29;20001;-75
2020/12/04 13:59:37;;;;;;;;;;;20.90;87.10;;;;;;4916662;29;19907;-78
2020/12/04 14:02:27;;;;;;;;;;;20.90;86.90;;;;;;4932785;29;19907;-75
2020/12/04 14:05:13;;;;;;;;;;;20.90;87.20;;;;;;4928586;29;19919;-76
2020/12/04 14:07:40;;;;;;;;;;;20.90;87.00;;;;;;4933712;29;19906;-74